Time;durP1;ratioP1;P1;durP2;ratioP2;P2;SDS_P1;SDS_P2;PMS_P1;PMS_P2;Temp;Humidity;BMP_temperature;BMP_pressure;BME280_temperature;BME280_humidity;BME280_pressure;Samples;Min_cycle;Max_cycle;Signal;HPM_P1;HPM_P2
2023/01/29 00:01:10;;;;;;;6.17;5.67;;;;;;;0.72;91.22;101550.44;5012618;28;20262;-75
2023/01/29 00:03:36;;;;;;;6.50;5.90;;;;;;;0.73;90.95;101544.53;5014844;28;20216;-76
2023/01/29 00:06:06;;;;;;;5.73;5.13;;;;;;;0.73;91.00;101546.19;5026033;28;20250;-75
2023/01/29 00:08:34;;;;;;;6.00;5.50;;;;;;;0.72;90.89;101552.09;5016187;28;20751;-76
2023/01/29 00:11:01;;;;;;;6.10;5.50;;;;;;;0.71;90.93;101543.59;5014117;28;20878;-74
2023/01/29 00:13:26;;;;;;;5.93;5.43;;;;;;;0.73;90.76;101539.44;5014896;28;20235;-74
2023/01/29 00:15:59;;;;;;;6.33;5.73;;;;;;;0.73;90.73;101542.00;5022326;28;20191;-74
2023/01/29 00:18:26;;;;;;;6.20;5.70;;;;;;;0.72;91.08;101539.34;5049097;28;20577;-77
2023/01/29 00:20:51;;;;;;;6.40;5.80;;;;;;;0.72;90.49;101544.44;5049576;28;20202;-74
2023/01/29 00:23:17;;;;;;;6.80;6.20;;;;;;;0.70;90.49;101543.47;5023036;28;21138;-74
2023/01/29 00:25:43;;;;;;;6.70;6.10;;;;;;;0.67;90.58;101545.91;5024288;28;20246;-75
2023/01/29 00:28:09;;;;;;;6.33;5.70;;;;;;;0.66;90.41;101537.38;5014277;28;20247;-77
2023/01/29 00:30:35;;;;;;;6.90;6.30;;;;;;;0.65;90.16;101539.84;5022102;28;20199;-75
2023/01/29 00:33:00;;;;;;;7.10;6.47;;;;;;;0.65;89.42;101540.72;5015143;28;20258;-75
2023/01/29 00:35:26;;;;;;;7.20;6.33;;;;;;;0.67;89.68;101539.13;5024718;28;20668;-74
2023/01/29 00:38:00;;;;;;;7.00;6.30;;;;;;;0.65;89.70;101540.72;5009141;28;20776;-76
2023/01/29 00:40:26;;;;;;;7.50;6.90;;;;;;;0.60;89.82;101537.94;5016682;28;20541;-75
2023/01/29 00:45:35;;;;;;;6.90;6.30;;;;;;;0.55;89.98;101544.44;5022211;28;20265;-74
2023/01/29 00:48:07;;;;;;;8.03;6.93;;;;;;;0.55;90.08;101541.03;5012178;28;20700;-76
2023/01/29 00:50:32;;;;;;;6.87;6.17;;;;;;;0.49;90.23;101541.59;5017658;28;20256;-75
2023/01/29 00:53:20;;;;;;;7.23;6.47;;;;;;;0.48;90.36;101536.41;5018749;28;20211;-76
2023/01/29 00:55:45;;;;;;;7.27;6.63;;;;;;;0.48;89.30;101536.41;5024195;28;20712;-75
2023/01/29 00:58:21;;;;;;;7.30;6.60;;;;;;;0.46;90.08;101538.88;5011731;28;20294;-75
2023/01/29 01:00:50;;;;;;;7.57;6.87;;;;;;;0.43;90.19;101537.06;5010788;28;20218;-76
2023/01/29 01:03:21;;;;;;;6.80;6.20;;;;;;;0.43;90.30;101542.16;5015226;28;20211;-74
2023/01/29 01:05:51;;;;;;;7.73;7.13;;;;;;;0.44;89.19;101545.56;5022973;28;20179;-75
2023/01/29 01:11:05;;;;;;;7.03;6.43;;;;;;;0.38;88.84;101537.63;5012513;28;20231;-74
2023/01/29 01:13:32;;;;;;;7.30;6.67;;;;;;;0.35;89.49;101537.44;5017081;28;20705;-75
2023/01/29 01:15:57;;;;;;;7.63;6.93;;;;;;;0.33;89.79;101544.97;5013512;28;20191;-74
2023/01/29 01:18:22;;;;;;;7.63;7.00;;;;;;;0.33;88.90;101541.56;5021148;28;20198;-75
2023/01/29 01:20:50;;;;;;;7.50;6.80;;;;;;;0.29;89.39;101549.06;5019589;28;20320;-74
2023/01/29 01:23:19;;;;;;;7.47;6.77;;;;;;;0.30;89.07;101542.31;5015971;28;21058;-74
2023/01/29 01:25:45;;;;;;;7.27;6.57;;;;;;;0.31;88.40;101546.56;5024714;28;20206;-76
2023/01/29 01:28:20;;;;;;;8.37;7.63;;;;;;;0.27;88.97;101545.53;5038436;28;20664;-75
2023/01/29 01:30:51;;;;;;;8.67;7.80;;;;;;;0.27;89.05;101552.31;5019592;28;20187;-74
2023/01/29 01:33:16;;;;;;;8.10;7.30;;;;;;;0.27;89.33;101548.09;5027445;28;20222;-74
2023/01/29 01:35:50;;;;;;;7.90;7.10;;;;;;;0.23;88.69;101553.81;5021585;28;20188;-75
2023/01/29 01:38:18;;;;;;;8.00;7.30;;;;;;;0.22;88.91;101549.53;5039642;28;20190;-74
2023/01/29 01:40:47;;;;;;;8.13;7.33;;;;;;;0.23;88.85;101552.94;5025071;28;20203;-74
2023/01/29 01:43:12;;;;;;;7.90;7.10;;;;;;;0.22;89.18;101556.28;5031544;28;20222;-74
2023/01/29 01:45:41;;;;;;;7.63;6.93;;;;;;;0.23;89.27;101556.34;5024534;28;20270;-75
2023/01/29 01:48:11;;;;;;;8.23;7.43;;;;;;;0.23;89.07;101548.72;5028855;28;20202;-76
2023/01/29 01:50:49;;;;;;;7.43;6.77;;;;;;;0.23;89.07;101555.47;5036564;28;20840;-75
2023/01/29 01:53:33;;;;;;;7.90;7.20;;;;;;;0.22;88.55;101551.19;5036687;28;20213;-74
2023/01/29 01:56:05;;;;;;;7.73;6.97;;;;;;;0.17;88.58;101553.50;5019658;28;20194;-74
2023/01/29 01:58:37;;;;;;;7.30;6.60;;;;;;;0.15;89.34;101550.84;5026449;28;20218;-74
2023/01/29 02:01:12;;;;;;;7.40;6.80;;;;;;;0.16;89.85;101541.56;5020418;28;20199;-75
2023/01/29 02:09:32;;;;;;;6.57;5.97;;;;;;;0.25;90.10;101541.16;5028385;28;20206;-75
2023/01/29 02:12:01;;;;;;;7.07;6.40;;;;;;;0.26;90.31;101537.84;5019065;28;20214;-75
2023/01/29 02:14:37;;;;;;;7.00;6.40;;;;;;;0.28;90.11;101541.34;5021289;28;20196;-74
2023/01/29 02:17:03;;;;;;;6.90;6.30;;;;;;;0.27;89.99;101537.91;5020122;28;20220;-75
2023/01/29 02:19:47;;;;;;;7.23;6.53;;;;;;;0.28;89.81;101546.44;5024155;28;20200;-74
2023/01/29 02:23:03;;;;;;;7.93;7.10;;;;;;;0.27;89.70;101550.63;5031999;28;20246;-75
2023/01/29 02:25:53;;;;;;;7.03;6.30;;;;;;;0.28;90.02;101539.66;5001637;28;20227;-74
2023/01/29 02:28:47;;;;;;;7.20;6.57;;;;;;;0.31;89.84;101549.13;5044243;28;20218;-76
2023/01/29 02:31:31;;;;;;;7.10;6.50;;;;;;;0.31;89.81;101544.03;5038781;28;20226;-74
2023/01/29 02:37:26;;;;;;;6.63;5.97;;;;;;;0.27;89.70;101548.09;5015427;28;20208;-75
2023/01/29 02:40:18;;;;;;;8.37;6.83;;;;;;;0.28;89.65;101542.19;5019023;28;20561;-74
2023/01/29 02:42:55;;;;;;;6.83;6.23;;;;;;;0.25;89.83;101543.72;5016195;28;20260;-75
2023/01/29 02:45:45;;;;;;;7.23;6.40;;;;;;;0.24;89.71;101536.88;5024026;28;20716;-74
2023/01/29 02:48:16;;;;;;;7.20;6.60;;;;;;;0.24;88.77;101541.97;5015774;28;20186;-74
2023/01/29 02:51:06;;;;;;;7.13;6.47;;;;;;;0.21;88.46;101540.13;5012429;28;20192;-74
2023/01/29 02:53:55;;;;;;;7.03;6.40;;;;;;;0.19;88.52;101535.75;5021650;28;20222;-76
2023/01/29 02:56:32;;;;;;;7.87;7.17;;;;;;;0.16;88.01;101544.09;5025533;28;20656;-74
2023/01/29 02:59:07;;;;;;;6.97;6.27;;;;;;;0.13;88.62;101539.72;5021226;28;20185;-75
2023/01/29 03:01:42;;;;;;;7.87;7.13;;;;;;;0.10;87.50;101534.47;5020681;28;20223;-74
2023/01/29 03:04:21;;;;;;;6.83;6.20;;;;;;;0.10;88.04;101537.00;5020365;28;20214;-74
2023/01/29 03:06:57;;;;;;;7.10;6.47;;;;;;;0.09;87.82;101539.44;5013410;28;20190;-75
2023/01/29 03:09:32;;;;;;;7.67;6.97;;;;;;;0.10;88.17;101528.47;5020022;28;20190;-75
2023/01/29 03:12:17;;;;;;;7.83;7.03;;;;;;;0.07;88.55;101531.75;5021957;28;20178;-75
2023/01/29 03:15:15;;;;;;;7.43;6.73;;;;;;;0.07;88.39;101528.34;5012721;28;20176;-75
2023/01/29 03:18:05;;;;;;;7.00;6.40;;;;;;;0.03;88.69;101534.91;5014628;28;20237;-74
2023/01/29 03:20:37;;;;;;;5.80;5.37;;;;;;;0.03;89.24;101526.41;5020528;28;20184;-74
2023/01/29 03:23:26;;;;;;;6.47;5.87;;;;;;;0.05;89.47;101518.06;5015264;28;20221;-75
2023/01/29 03:34:37;;;;;;;7.27;6.67;;;;;;;0.20;89.62;101522.22;5027859;28;20249;-74
2023/01/29 03:37:09;;;;;;;7.20;6.50;;;;;;;0.19;89.63;101523.00;5028785;28;20601;-74
2023/01/29 03:39:47;;;;;;;6.87;6.27;;;;;;;0.17;89.63;101522.94;5034095;28;20949;-73
2023/01/29 03:42:28;;;;;;;7.17;6.47;;;;;;;0.19;88.71;101525.56;5031827;28;20218;-74
2023/01/29 03:45:07;;;;;;;6.27;5.77;;;;;;;0.12;89.16;101534.53;5027326;28;20535;-72
2023/01/29 03:47:50;;;;;;;8.03;6.23;;;;;;;0.13;89.13;101532.09;5036913;28;20715;-74
2023/01/29 03:50:46;;;;;;;6.97;6.30;;;;;;;0.05;89.15;101528.25;5024439;28;20179;-73
2023/01/29 03:53:36;;;;;;;6.83;6.23;;;;;;;0.02;90.02;101530.59;5017236;28;20327;-74
2023/01/29 03:56:30;;;;;;;6.33;5.80;;;;;;;0.01;90.26;101530.53;5026429;28;20615;-73
2023/01/29 03:59:14;;;;;;;6.50;5.90;;;;;;;0.01;90.63;101526.31;5022268;28;20183;-73
2023/01/29 04:01:55;;;;;;;7.33;6.73;;;;;;;0.03;90.86;101531.50;5020665;28;20717;-73
2023/01/29 04:04:30;;;;;;;7.10;6.40;;;;;;;0.04;90.39;101531.56;5016489;28;20197;-75
2023/01/29 04:07:03;;;;;;;6.67;6.00;;;;;;;0.02;90.34;101538.25;5014337;28;20829;-73
2023/01/29 04:09:39;;;;;;;7.37;6.67;;;;;;;-0.01;90.49;101531.34;5022612;28;20263;-72
2023/01/29 04:12:08;;;;;;;6.10;5.57;;;;;;;0.01;90.79;101538.19;5016584;28;20215;-73
2023/01/29 04:14:34;;;;;;;5.87;5.37;;;;;;;0.02;90.93;101528.06;5025705;28;20214;-73
2023/01/29 04:17:13;;;;;;;6.43;5.93;;;;;;;0.05;91.03;101533.34;5015513;28;20191;-74
2023/01/29 04:19:39;;;;;;;5.93;5.40;;;;;;;0.10;91.33;101534.47;5020787;28;20223;-73
2023/01/29 04:22:14;;;;;;;6.70;6.10;;;;;;;0.15;91.50;101533.03;5021216;28;20220;-75
2023/01/29 04:24:42;;;;;;;6.50;5.90;;;;;;;0.19;91.40;101535.75;5022725;28;20190;-76
2023/01/29 04:27:38;;;;;;;6.30;5.70;;;;;;;0.17;90.91;101534.78;5027624;28;20186;-73
2023/01/29 04:30:24;;;;;;;6.90;6.20;;;;;;;0.13;90.96;101531.19;5017467;28;20590;-74
2023/01/29 04:33:03;;;;;;;7.27;6.60;;;;;;;0.13;90.74;101531.19;5018454;28;20231;-75
2023/01/29 04:35:40;;;;;;;7.03;6.43;;;;;;;0.09;90.67;101526.72;5016620;28;20179;-74
2023/01/29 04:38:38;;;;;;;7.00;6.30;;;;;;;0.05;91.03;101529.94;5028341;28;20212;-78
2023/01/29 04:41:38;;;;;;;7.40;6.73;;;;;;;0.03;91.49;101532.38;5059614;28;20178;-76
2023/01/29 04:44:21;;;;;;;6.67;6.07;;;;;;;0.02;91.79;101532.28;5021999;28;20227;-73
2023/01/29 04:47:13;;;;;;;7.33;6.50;;;;;;;0.05;92.04;101537.56;5019659;28;20319;-76
2023/01/29 04:50:01;;;;;;;7.47;6.77;;;;;;;0.04;91.46;101530.72;5019729;28;20182;-75
2023/01/29 04:53:04;;;;;;;7.33;6.50;;;;;;;0.05;91.72;101524.84;5017179;28;20778;-75
2023/01/29 04:55:45;;;;;;;7.27;6.63;;;;;;;0.07;91.77;101529.19;4964611;28;20281;-75
2023/01/29 04:58:38;;;;;;;7.10;6.50;;;;;;;0.09;91.95;101527.63;5011034;28;20183;-76
2023/01/29 05:01:12;;;;;;;6.03;5.53;;;;;;;0.12;92.10;101524.34;5018476;28;20566;-75
2023/01/29 05:03:44;;;;;;;6.90;5.73;;;;;;;0.17;91.56;101529.69;5021387;28;20208;-75
2023/01/29 05:06:11;;;;;;;6.50;6.00;;;;;;;0.17;91.18;101528.03;5025370;28;20553;-73
2023/01/29 05:08:37;;;;;;;6.30;5.70;;;;;;;0.14;90.93;101535.50;5023560;28;20651;-75
2023/01/29 05:11:03;;;;;;;6.80;6.20;;;;;;;0.10;90.80;101534.47;5021035;28;20716;-73
2023/01/29 05:13:32;;;;;;;7.90;7.20;;;;;;;0.10;90.67;101544.66;5021556;28;20683;-74
2023/01/29 05:16:18;;;;;;;7.53;6.83;;;;;;;0.10;90.08;101551.38;5014629;28;20674;-75
2023/01/29 05:18:43;;;;;;;7.03;6.33;;;;;;;0.03;91.14;101550.19;5018949;28;20179;-74
2023/01/29 05:21:09;;;;;;;7.40;6.70;;;;;;;0.02;90.60;101545.88;5027053;28;20807;-74
2023/01/29 05:23:34;;;;;;;6.57;5.97;;;;;;;-0.01;90.65;101538.97;5024311;28;20222;-75
2023/01/29 05:26:00;;;;;;;6.90;6.30;;;;;;;-0.03;91.13;101525.28;5048695;28;20207;-77
2023/01/29 05:28:25;;;;;;;7.17;6.53;;;;;;;-0.02;91.23;101513.44;5046146;28;20760;-74
2023/01/29 05:30:53;;;;;;;6.93;6.23;;;;;;;-0.02;91.05;101506.66;5029526;28;20658;-74
2023/01/29 05:33:21;;;;;;;6.90;6.20;;;;;;;-0.02;91.26;101495.63;5018057;28;20210;-75
2023/01/29 05:35:47;;;;;;;6.87;6.23;;;;;;;-0.02;91.56;101488.84;5022310;28;20182;-74
2023/01/29 05:38:13;;;;;;;6.77;6.00;;;;;;;-0.02;90.71;101486.31;5023929;28;20195;-75
2023/01/29 05:40:39;;;;;;;6.57;5.93;;;;;;;-0.02;90.37;101509.22;5015871;28;20650;-76
2023/01/29 05:43:05;;;;;;;7.60;6.90;;;;;;;-0.05;90.71;101505.63;5018196;28;20211;-75
2023/01/29 05:45:31;;;;;;;6.57;5.97;;;;;;;-0.08;90.46;101503.81;5019471;28;20187;-74
2023/01/29 05:47:58;;;;;;;6.40;5.80;;;;;;;-0.10;91.14;101489.22;5016582;28;20523;-75
2023/01/29 05:50:24;;;;;;;6.57;5.97;;;;;;;-0.12;91.62;101499.34;5026433;28;20530;-74
2023/01/29 05:53:01;;;;;;;6.90;6.23;;;;;;;-0.06;91.70;101508.97;5024431;28;20222;-74
2023/01/29 05:55:28;;;;;;;7.00;6.30;;;;;;;0.01;91.21;101508.50;5016877;28;20181;-75
2023/01/29 05:57:59;;;;;;;6.57;5.97;;;;;;;-0.03;91.15;101509.16;5013724;28;20212;-75
2023/01/29 06:00:25;;;;;;;7.00;6.40;;;;;;;-0.06;91.24;101508.97;5015523;28;20182;-77
2023/01/29 06:03:11;;;;;;;7.60;6.90;;;;;;;-0.05;90.98;101520.91;5014589;28;20227;-74
2023/01/29 06:05:37;;;;;;;6.97;6.37;;;;;;;-0.05;91.57;101526.00;5022495;28;20689;-75
2023/01/29 06:08:05;;;;;;;7.70;6.20;;;;;;;-0.06;91.60;101530.19;5020179;28;20590;-76
2023/01/29 06:10:31;;;;;;;6.53;5.93;;;;;;;-0.07;91.98;101525.03;5016657;28;20186;-75
2023/01/29 06:12:56;;;;;;;7.17;6.47;;;;;;;-0.02;91.36;101537.22;5032380;28;20200;-76
2023/01/29 06:15:27;;;;;;;7.03;6.43;;;;;;;-0.04;91.46;101543.88;5028054;28;20190;-75
2023/01/29 06:18:02;;;;;;;6.90;6.27;;;;;;;-0.06;91.28;101545.47;5022156;28;20549;-74
2023/01/29 06:20:27;;;;;;;7.57;6.70;;;;;;;-0.09;91.32;101554.59;5024975;28;20188;-73
2023/01/29 06:22:52;;;;;;;7.10;6.50;;;;;;;-0.10;91.32;101546.13;5019438;28;20196;-75
2023/01/29 06:25:17;;;;;;;6.63;6.03;;;;;;;-0.12;91.24;101541.72;5015663;28;20923;-75
2023/01/29 06:27:43;;;;;;;7.23;6.53;;;;;;;-0.14;91.79;101545.84;5016769;28;20792;-75
2023/01/29 06:30:09;;;;;;;7.17;6.47;;;;;;;-0.13;91.55;101539.94;5016663;28;20198;-74
2023/01/29 06:32:34;;;;;;;7.10;6.50;;;;;;;-0.11;91.92;101531.63;5020743;28;20221;-75
2023/01/29 06:35:02;;;;;;;7.07;6.03;;;;;;;-0.14;91.28;101530.56;5015067;28;20198;-75
2023/01/29 06:37:28;;;;;;;6.93;6.23;;;;;;;-0.19;92.09;101532.88;5020076;28;20695;-74
2023/01/29 06:39:53;;;;;;;7.10;6.47;;;;;;;-0.19;92.08;101537.94;5014784;28;20191;-75
2023/01/29 06:42:27;;;;;;;7.20;6.60;;;;;;;-0.19;92.05;101522.69;5036014;28;20207;-75
2023/01/29 06:44:55;;;;;;;7.07;6.47;;;;;;;-0.19;92.29;101526.13;5012695;28;20177;-75
2023/01/29 06:47:28;;;;;;;6.87;6.27;;;;;;;-0.15;92.46;101539.88;5016993;28;20195;-75
2023/01/29 06:50:02;;;;;;;6.83;6.23;;;;;;;-0.12;92.08;101524.78;5029439;28;20895;-77
2023/01/29 06:52:28;;;;;;;6.87;6.23;;;;;;;-0.11;91.79;101521.47;5052219;28;20188;-77
2023/01/29 06:54:55;;;;;;;7.03;6.33;;;;;;;-0.08;91.56;101520.75;5052574;28;20213;-76
2023/01/29 06:57:20;;;;;;;7.00;6.40;;;;;;;-0.07;91.25;101514.84;5017796;28;20241;-75
2023/01/29 06:59:45;;;;;;;7.33;6.63;;;;;;;-0.07;91.28;101523.34;5019916;28;20187;-74
2023/01/29 07:02:11;;;;;;;8.07;6.93;;;;;;;-0.10;91.10;101513.03;5020891;28;20258;-76
2023/01/29 07:04:37;;;;;;;12.83;6.80;;;;;;;-0.12;91.67;101521.34;5016198;28;20632;-75
2023/01/29 07:07:11;;;;;;;7.67;6.93;;;;;;;-0.13;91.47;101522.16;5018873;28;20179;-74
2023/01/29 07:09:38;;;;;;;7.23;6.53;;;;;;;-0.12;91.30;101526.44;5019583;28;20186;-75
2023/01/29 07:12:09;;;;;;;7.73;7.03;;;;;;;-0.12;91.49;101529.00;5013578;28;20214;-74
2023/01/29 07:14:35;;;;;;;7.93;7.20;;;;;;;-0.11;91.59;101539.28;5020505;28;20220;-75
2023/01/29 07:17:00;;;;;;;7.63;6.93;;;;;;;-0.13;91.76;101539.94;5023269;28;20562;-76
2023/01/29 07:19:25;;;;;;;8.93;8.03;;;;;;;-0.15;92.59;101544.97;5035384;28;20182;-74
2023/01/29 07:21:54;;;;;;;8.27;7.47;;;;;;;-0.14;92.65;101543.28;5028574;28;20183;-75
2023/01/29 07:24:23;;;;;;;8.47;7.67;;;;;;;-0.12;93.03;101551.88;5016685;28;20217;-75
2023/01/29 07:26:48;;;;;;;7.93;7.13;;;;;;;-0.11;93.06;101554.53;5017655;28;20190;-74
2023/01/29 07:29:14;;;;;;;8.57;7.77;;;;;;;-0.09;93.37;101554.59;5054490;28;20228;-75
2023/01/29 07:31:39;;;;;;;9.13;8.23;;;;;;;-0.06;93.33;101563.28;5037649;28;20220;-75
2023/01/29 07:34:04;;;;;;;8.57;7.73;;;;;;;-0.06;93.06;101562.41;5031403;28;20619;-73
2023/01/29 07:36:33;;;;;;;8.67;7.47;;;;;;;-0.08;92.58;101552.16;5038239;28;20278;-73
2023/01/29 07:38:58;;;;;;;7.73;7.03;;;;;;;-0.10;92.86;101552.84;5025179;28;20195;-72
2023/01/29 07:41:23;;;;;;;8.03;7.33;;;;;;;-0.07;92.86;101550.47;5025497;28;20702;-74
2023/01/29 07:43:48;;;;;;;7.73;7.03;;;;;;;-0.03;92.13;101545.63;5038631;28;20226;-75
2023/01/29 07:46:19;;;;;;;7.97;7.17;;;;;;;0.05;91.55;101543.50;5043346;28;20198;-74
2023/01/29 07:48:50;;;;;;;8.47;7.67;;;;;;;0.10;91.27;101546.31;5038221;28;20665;-75
2023/01/29 07:51:17;;;;;;;8.40;7.60;;;;;;;0.17;91.20;101547.50;5028455;28;20186;-75
2023/01/29 07:53:43;;;;;;;8.47;7.67;;;;;;;0.22;90.75;101563.91;5024860;28;20197;-74
2023/01/29 07:56:09;;;;;;;9.50;8.60;;;;;;;0.22;90.01;101566.47;5037303;28;20574;-75
2023/01/29 07:58:34;;;;;;;8.83;8.03;;;;;;;0.20;89.74;101578.22;5036311;28;20297;-74
2023/01/29 08:01:04;;;;;;;8.27;7.47;;;;;;;0.17;90.17;101581.50;5023571;28;20763;-75
2023/01/29 08:03:29;;;;;;;9.53;8.53;;;;;;;0.15;90.59;101586.47;5023932;28;20734;-74
2023/01/29 08:05:57;;;;;;;10.20;8.70;;;;;;;0.18;90.24;101590.00;5012718;28;20200;-75
2023/01/29 08:08:31;;;;;;;8.83;7.93;;;;;;;0.19;90.62;101591.75;5017668;28;20194;-76
2023/01/29 08:11:00;;;;;;;8.90;8.00;;;;;;;0.21;90.38;101593.59;5013809;28;20194;-74
2023/01/29 08:13:25;;;;;;;8.77;7.80;;;;;;;0.23;90.18;101583.50;5014950;28;20214;-76
2023/01/29 08:15:50;;;;;;;8.40;7.50;;;;;;;0.28;89.25;101582.94;5012536;28;20192;-73
2023/01/29 08:18:24;;;;;;;7.50;6.70;;;;;;;0.27;89.51;101578.63;5016462;28;20298;-75
2023/01/29 08:20:50;;;;;;;8.10;7.30;;;;;;;0.32;88.96;101583.13;5012511;28;20192;-74
2023/01/29 08:23:18;;;;;;;7.50;6.90;;;;;;;0.35;88.43;101594.34;5014873;28;20314;-74
2023/01/29 08:25:49;;;;;;;7.33;6.63;;;;;;;0.37;88.38;101591.88;5019853;28;20195;-74
2023/01/29 08:28:30;;;;;;;6.83;6.13;;;;;;;0.34;88.21;101592.56;5014756;28;20240;-76
2023/01/29 08:30:58;;;;;;;7.10;6.50;;;;;;;0.31;88.85;101589.84;5016783;28;20199;-74
2023/01/29 08:33:27;;;;;;;8.10;7.37;;;;;;;0.29;89.22;101588.94;5025214;28;20242;-75
2023/01/29 08:36:10;;;;;;;7.50;6.80;;;;;;;0.30;89.21;101583.03;5015247;28;20252;-75
2023/01/29 08:38:35;;;;;;;7.43;6.73;;;;;;;0.34;89.57;101599.34;5028224;28;20194;-75
2023/01/29 08:41:00;;;;;;;7.50;6.80;;;;;;;0.38;89.53;101594.50;5023409;28;20194;-74
2023/01/29 08:43:26;;;;;;;7.70;6.97;;;;;;;0.50;89.02;101595.94;5020353;28;20734;-75
2023/01/29 08:45:51;;;;;;;7.87;7.10;;;;;;;0.57;88.90;101596.34;5014394;28;22401;-76
2023/01/29 08:48:24;;;;;;;7.60;6.83;;;;;;;0.69;88.22;101598.69;5012957;28;20245;-75
2023/01/29 08:50:52;;;;;;;7.50;6.80;;;;;;;0.81;87.91;101600.09;5015382;28;20191;-74
2023/01/29 08:53:18;;;;;;;7.43;6.73;;;;;;;0.90;86.74;101600.59;5007431;28;20698;-76
2023/01/29 08:55:45;;;;;;;7.20;6.50;;;;;;;0.95;86.93;101606.78;5013439;28;20278;-74
2023/01/29 08:58:12;;;;;;;6.80;6.20;;;;;;;0.99;86.37;101595.97;5020793;28;20219;-76
2023/01/29 09:00:43;;;;;;;7.43;6.83;;;;;;;1.01;86.46;101599.47;5023561;28;20210;-75
2023/01/29 09:03:11;;;;;;;7.10;6.50;;;;;;;1.10;86.54;101590.53;5046509;28;20191;-76
2023/01/29 09:05:52;;;;;;;6.80;6.20;;;;;;;1.23;85.55;101592.03;5045299;28;20191;-75
2023/01/29 09:08:17;;;;;;;7.00;6.40;;;;;;;1.31;85.39;101589.06;5031422;28;20674;-74
2023/01/29 09:10:53;;;;;;;7.40;6.70;;;;;;;1.34;84.87;101580.69;5021934;28;20190;-75
2023/01/29 09:13:21;;;;;;;7.03;6.43;;;;;;;1.33;84.90;101586.59;5016448;28;20208;-75
2023/01/29 09:15:49;;;;;;;7.83;7.03;;;;;;;1.35;85.11;101588.44;5018243;28;20198;-75
2023/01/29 09:18:20;;;;;;;7.43;6.73;;;;;;;1.39;85.09;101599.66;5021519;28;20203;-75
2023/01/29 09:20:46;;;;;;;7.23;6.53;;;;;;;1.46;84.80;101601.69;5027263;28;20187;-75
2023/01/29 09:23:14;;;;;;;7.30;6.43;;;;;;;1.55;84.83;101611.47;5033624;28;20262;-75
2023/01/29 09:25:41;;;;;;;6.57;6.03;;;;;;;1.67;84.77;101606.13;5027383;28;20286;-73
2023/01/29 09:28:07;;;;;;;7.03;6.40;;;;;;;1.75;84.10;101617.56;5045039;28;20270;-74
2023/01/29 09:30:33;;;;;;;6.57;6.00;;;;;;;1.86;83.88;101612.13;5027135;28;20267;-77
2023/01/29 09:33:00;;;;;;;7.23;6.57;;;;;;;2.02;83.05;101609.50;5017548;28;20269;-74
2023/01/29 09:35:25;;;;;;;8.30;7.60;;;;;;;2.17;83.09;101596.56;5021806;28;20188;-74
2023/01/29 09:37:53;;;;;;;6.97;6.37;;;;;;;2.28;82.28;101589.41;5013818;28;20279;-75
2023/01/29 09:40:50;;;;;;;9.67;8.77;;;;;;;2.46;81.53;101581.69;5015754;28;20191;-74
2023/01/29 09:43:23;;;;;;;8.00;7.20;;;;;;;2.49;81.26;101563.94;5009840;28;20257;-76
2023/01/29 09:46:04;;;;;;;33.10;30.03;;;;;;;2.56;80.79;101555.75;5009747;28;20275;-75
2023/01/29 09:48:33;;;;;;;20.70;18.60;;;;;;;2.59;80.41;101542.22;5014165;28;20228;-74
2023/01/29 09:51:07;;;;;;;23.47;21.30;;;;;;;2.70;80.29;101538.44;5009032;28;21102;-75
2023/01/29 09:53:53;;;;;;;15.77;14.27;;;;;;;2.80;80.15;101534.63;5010759;28;20606;-75
2023/01/29 09:56:27;;;;;;;13.83;12.53;;;;;;;2.84;79.90;101539.06;5012713;28;20283;-75
2023/01/29 09:58:57;;;;;;;10.77;9.77;;;;;;;2.97;80.09;101544.69;5025858;28;20190;-76
2023/01/29 10:01:37;;;;;;;11.27;10.03;;;;;;;3.09;79.99;101544.34;5024500;28;20215;-76
2023/01/29 10:04:23;;;;;;;9.30;8.50;;;;;;;3.17;79.69;101554.09;5013713;28;20204;-78
2023/01/29 10:07:00;;;;;;;7.53;6.83;;;;;;;3.23;79.61;101535.56;5015108;28;20216;-77
2023/01/29 10:09:53;;;;;;;6.77;6.17;;;;;;;3.34;79.33;101538.53;5035546;28;20195;-75
2023/01/29 10:12:18;;;;;;;6.63;6.03;;;;;;;3.39;79.06;101531.94;5019076;28;20286;-75
2023/01/29 10:14:50;;;;;;;5.50;5.10;;;;;;;3.44;78.14;101539.78;5022372;28;20409;-76
2023/01/29 10:17:34;;;;;;;5.83;5.33;;;;;;;3.41;77.97;101542.22;5019135;28;20197;-75
2023/01/29 10:19:59;;;;;;;5.30;4.90;;;;;;;3.37;77.93;101540.38;5014068;28;20180;-76
2023/01/29 10:22:49;;;;;;;5.90;5.30;;;;;;;3.43;78.03;101549.16;5014044;28;20697;-75
2023/01/29 10:25:18;;;;;;;5.40;5.00;;;;;;;3.46;77.95;101545.84;5021421;28;20223;-75
2023/01/29 10:27:56;;;;;;;5.50;5.10;;;;;;;3.57;77.65;101542.03;5018442;28;20756;-74
2023/01/29 10:30:37;;;;;;;6.40;5.70;;;;;;;3.66;77.59;101555.22;5020906;28;20190;-74
2023/01/29 10:33:16;;;;;;;6.50;5.90;;;;;;;3.63;76.75;101556.78;5016705;28;20216;-75
2023/01/29 10:35:45;;;;;;;5.90;5.40;;;;;;;3.63;76.71;101546.53;5023107;28;20197;-75
2023/01/29 10:38:38;;;;;;;6.30;5.70;;;;;;;3.66;76.78;101547.53;5013901;28;20188;-75
2023/01/29 10:41:41;;;;;;;5.17;4.77;;;;;;;3.74;76.71;101545.28;5020147;28;20216;-76
2023/01/29 10:44:54;;;;;;;5.20;4.80;;;;;;;3.85;76.59;101562.72;4999585;28;20232;-75
2023/01/29 10:47:41;;;;;;;4.40;4.10;;;;;;;4.05;76.35;101558.38;4976288;28;20201;-75
2023/01/29 10:50:22;;;;;;;4.80;4.40;;;;;;;4.23;76.25;101556.53;4978849;28;20195;-74
2023/01/29 10:53:19;;;;;;;5.27;4.83;;;;;;;4.33;75.71;101552.63;5007115;28;20235;-74
2023/01/29 10:56:08;;;;;;;5.30;4.90;;;;;;;4.30;75.46;101554.19;5015613;28;20184;-75
2023/01/29 10:58:43;;;;;;;5.17;4.77;;;;;;;4.30;75.45;101567.00;5014378;28;20186;-75
2023/01/29 11:01:09;;;;;;;5.50;5.10;;;;;;;4.30;75.32;101570.44;5012822;28;20606;-75
2023/01/29 11:03:38;;;;;;;5.40;5.00;;;;;;;4.32;75.26;101556.00;5018028;28;20208;-74
2023/01/29 11:06:26;;;;;;;4.37;4.07;;;;;;;4.37;75.49;101544.22;5010122;28;20188;-74
2023/01/29 11:09:13;;;;;;;4.50;4.20;;;;;;;4.41;75.52;101537.53;5025524;28;20188;-75
2023/01/29 11:11:47;;;;;;;4.93;4.57;;;;;;;4.48;75.85;101533.47;5018405;28;20182;-75
2023/01/29 11:14:23;;;;;;;5.20;4.80;;;;;;;4.43;75.23;101526.50;5022944;28;20178;-77
2023/01/29 11:16:48;;;;;;;4.83;4.47;;;;;;;4.36;75.06;101529.66;5046155;28;20171;-76
2023/01/29 11:19:15;;;;;;;4.70;4.30;;;;;;;4.32;75.39;101521.78;5031141;28;20186;-74
2023/01/29 11:21:58;;;;;;;4.87;4.37;;;;;;;4.32;75.58;101511.53;5016882;28;20227;-74
2023/01/29 11:24:24;;;;;;;4.40;4.00;;;;;;;4.34;75.78;101515.03;5014409;28;20215;-74
2023/01/29 11:26:51;;;;;;;9.83;9.00;;;;;;;4.37;75.37;101513.47;5014928;28;20258;-75
2023/01/29 11:29:32;;;;;;;7.70;7.10;;;;;;;4.31;74.81;101502.97;5009274;28;20195;-74
2023/01/29 11:31:59;;;;;;;5.80;5.40;;;;;;;4.25;75.02;101500.19;5011839;28;20295;-75
2023/01/29 11:34:29;;;;;;;6.43;5.83;;;;;;;4.29;75.25;101501.19;5010916;28;20678;-76
2023/01/29 11:37:01;;;;;;;5.43;5.03;;;;;;;4.38;75.26;101504.06;5013321;28;20196;-75
2023/01/29 11:39:46;;;;;;;6.10;5.60;;;;;;;4.39;74.77;101490.44;5018493;28;20742;-75
2023/01/29 11:42:20;;;;;;;6.30;5.80;;;;;;;4.32;74.46;101485.91;5011453;28;20290;-74
2023/01/29 11:44:46;;;;;;;5.00;4.60;;;;;;;4.29;74.50;101484.13;5009545;28;20192;-75
2023/01/29 11:47:11;;;;;;;5.23;4.83;;;;;;;4.33;74.96;101482.53;5018277;28;20195;-75
2023/01/29 11:49:40;;;;;;;5.20;4.80;;;;;;;4.35;74.88;101479.22;5022333;28;20186;-74
2023/01/29 11:52:09;;;;;;;5.40;5.00;;;;;;;4.39;74.94;101480.19;5012542;28;20218;-75
2023/01/29 11:54:44;;;;;;;5.23;4.83;;;;;;;4.40;74.93;101467.41;5013325;28;20192;-75
2023/01/29 11:57:44;;;;;;;4.40;4.10;;;;;;;4.47;75.29;101468.50;5011064;28;20219;-74
2023/01/29 12:00:27;;;;;;;5.27;4.77;;;;;;;4.54;75.35;101467.91;5017921;28;20211;-74
2023/01/29 12:03:18;;;;;;;6.00;5.43;;;;;;;4.58;75.37;101458.63;5012076;28;20226;-75
2023/01/29 12:05:54;;;;;;;5.33;4.93;;;;;;;4.59;75.40;101445.00;5012903;28;20192;-75
2023/01/29 12:08:23;;;;;;;5.50;5.00;;;;;;;4.49;74.93;101440.38;5019285;28;20200;-74
2023/01/29 12:11:34;;;;;;;5.53;5.13;;;;;;;4.42;75.12;101437.59;5016783;28;20192;-75
2023/01/29 12:14:14;;;;;;;5.30;4.90;;;;;;;4.39;75.22;101437.47;5029461;28;20214;-74
2023/01/29 12:17:18;;;;;;;6.40;5.90;;;;;;;4.45;75.43;101430.84;5012239;28;20211;-75
2023/01/29 12:20:21;;;;;;;5.83;5.33;;;;;;;4.47;75.39;101417.25;5017297;28;20872;-74
2023/01/29 12:23:01;;;;;;;8.47;7.67;;;;;;;4.48;75.06;101413.84;5010367;28;20215;-75
2023/01/29 12:25:55;;;;;;;7.60;6.90;;;;;;;4.52;75.11;101409.72;5010868;28;20196;-76